Time;durP1;ratioP1;P1;durP2;ratioP2;P2;SDS_P1;SDS_P2;PMS_P1;PMS_P2;Temp;Humidity;BMP_temperature;BMP_pressure;BME280_temperature;BME280_humidity;BME280_pressure;Samples;Min_cycle;Max_cycle;Signal;HPM_P1;HPM_P2
2024/04/06 00:01:31;;;;;;;;;;;24.50;40.20;;;;;;5055520;28;19924;-61
2024/04/06 00:03:58;;;;;;;;;;;24.50;40.30;;;;;;5055972;28;20073;-62
2024/04/06 00:06:23;;;;;;;;;;;24.50;40.30;;;;;;5055447;28;19925;-61
2024/04/06 00:08:50;;;;;;;;;;;24.50;40.30;;;;;;5056104;28;19928;-61
2024/04/06 00:11:16;;;;;;;;;;;24.50;40.30;;;;;;5055546;28;19924;-61
2024/04/06 00:13:42;;;;;;;;;;;24.50;40.30;;;;;;5055590;28;19932;-62
2024/04/06 00:16:08;;;;;;;;;;;24.50;40.30;;;;;;5055778;28;19929;-61
2024/04/06 00:18:35;;;;;;;;;;;24.50;40.40;;;;;;5055651;28;19932;-62
2024/04/06 00:21:02;;;;;;;;;;;24.50;40.40;;;;;;5039288;28;19925;-61
2024/04/06 00:23:28;;;;;;;;;;;24.50;40.40;;;;;;5055212;28;19924;-63
2024/04/06 00:25:54;;;;;;;;;;;24.50;40.40;;;;;;5055166;28;20023;-61
2024/04/06 00:28:20;;;;;;;;;;;24.50;40.40;;;;;;5055282;28;19936;-61
2024/04/06 00:30:45;;;;;;;;;;;24.50;40.50;;;;;;5055307;28;19928;-61
2024/04/06 00:33:11;;;;;;;;;;;24.50;40.50;;;;;;5055214;28;19925;-62
2024/04/06 00:35:38;;;;;;;;;;;24.50;40.50;;;;;;5055580;28;19924;-62
2024/04/06 00:38:04;;;;;;;;;;;24.50;40.50;;;;;;5055184;28;19925;-61
2024/04/06 00:40:30;;;;;;;;;;;24.50;40.50;;;;;;5055380;28;19952;-61
2024/04/06 00:42:56;;;;;;;;;;;24.50;40.50;;;;;;5055039;28;20332;-61
2024/04/06 00:45:22;;;;;;;;;;;24.50;40.40;;;;;;5055290;28;19925;-61
2024/04/06 00:47:47;;;;;;;;;;;24.50;40.50;;;;;;5055201;28;20397;-61
2024/04/06 00:50:14;;;;;;;;;;;24.50;40.50;;;;;;5054294;28;19947;-61
2024/04/06 00:52:40;;;;;;;;;;;24.50;40.40;;;;;;5054322;28;19936;-62
2024/04/06 00:55:06;;;;;;;;;;;24.50;41.00;;;;;;5038707;28;19925;-62
2024/04/06 00:57:32;;;;;;;;;;;24.50;40.50;;;;;;5054886;28;20293;-61
2024/04/06 00:59:58;;;;;;;;;;;24.50;40.50;;;;;;5054790;28;19924;-61
2024/04/06 01:02:23;;;;;;;;;;;24.50;40.50;;;;;;5054475;28;20397;-61
2024/04/06 01:04:49;;;;;;;;;;;24.50;40.50;;;;;;5054711;28;19928;-62
2024/04/06 01:07:15;;;;;;;;;;;24.50;40.50;;;;;;5054798;28;19932;-61
2024/04/06 01:09:41;;;;;;;;;;;24.50;40.50;;;;;;5054628;28;19994;-62
2024/04/06 01:12:07;;;;;;;;;;;24.50;40.50;;;;;;5053972;28;19983;-61
2024/04/06 01:14:33;;;;;;;;;;;24.50;40.50;;;;;;5054324;28;20003;-61
2024/04/06 01:19:24;;;;;;;;;;;24.50;41.10;;;;;;5054205;28;19925;-61
2024/04/06 01:21:50;;;;;;;;;;;24.50;40.60;;;;;;5054319;28;19976;-61
2024/04/06 01:24:30;;;;;;;;;;;24.40;40.60;;;;;;5053906;28;20405;-61
2024/04/06 01:26:56;;;;;;;;;;;24.40;40.60;;;;;;5054000;28;20408;-61
2024/04/06 01:29:24;;;;;;;;;;;24.40;40.60;;;;;;5054310;28;19929;-61
2024/04/06 01:31:50;;;;;;;;;;;24.40;40.70;;;;;;5053917;28;19928;-61
2024/04/06 01:34:16;;;;;;;;;;;24.40;40.70;;;;;;5054164;28;19970;-61
2024/04/06 01:36:41;;;;;;;;;;;24.30;40.70;;;;;;5054060;28;20381;-62
2024/04/06 01:39:08;;;;;;;;;;;24.30;40.70;;;;;;5053996;28;19932;-61
2024/04/06 01:41:37;;;;;;;;;;;24.40;40.70;;;;;;5037157;28;19929;-61
2024/04/06 01:44:03;;;;;;;;;;;24.30;40.70;;;;;;5021062;28;19925;-61
2024/04/06 01:46:29;;;;;;;;;;;24.40;40.70;;;;;;5053940;28;19983;-61
2024/04/06 01:48:55;;;;;;;;;;;24.30;40.70;;;;;;5053789;28;19925;-61
2024/04/06 01:51:21;;;;;;;;;;;24.30;40.70;;;;;;5054041;28;19932;-61
2024/04/06 01:53:47;;;;;;;;;;;24.30;40.70;;;;;;5053526;28;20015;-62
2024/04/06 01:56:13;;;;;;;;;;;24.40;40.70;;;;;;5053719;28;19924;-61
2024/04/06 01:58:39;;;;;;;;;;;24.30;40.70;;;;;;5053674;28;19932;-61
2024/04/06 02:01:04;;;;;;;;;;;24.30;40.70;;;;;;5053822;28;19924;-61
2024/04/06 02:03:30;;;;;;;;;;;24.30;40.70;;;;;;5053634;28;19931;-61
2024/04/06 02:05:57;;;;;;;;;;;24.30;40.70;;;;;;5053484;28;20331;-61
2024/04/06 02:08:23;;;;;;;;;;;24.30;40.70;;;;;;5053531;28;19925;-61
2024/04/06 02:10:49;;;;;;;;;;;24.30;40.70;;;;;;5053525;28;19925;-62
2024/04/06 02:13:15;;;;;;;;;;;24.30;40.70;;;;;;5053328;28;20427;-61
2024/04/06 02:15:41;;;;;;;;;;;24.30;40.70;;;;;;5053622;28;19924;-61
2024/04/06 02:18:06;;;;;;;;;;;24.30;40.70;;;;;;5053158;28;20373;-61
2024/04/06 02:20:32;;;;;;;;;;;24.30;40.70;;;;;;5053434;28;19929;-61
2024/04/06 02:22:58;;;;;;;;;;;24.30;40.70;;;;;;5052885;28;20426;-62
2024/04/06 02:25:24;;;;;;;;;;;24.30;40.70;;;;;;5053592;28;19925;-61
2024/04/06 02:27:50;;;;;;;;;;;24.30;40.80;;;;;;5053296;28;20439;-62
2024/04/06 02:30:15;;;;;;;;;;;24.30;40.80;;;;;;5052869;28;19929;-61
2024/04/06 02:32:41;;;;;;;;;;;24.30;40.80;;;;;;5052782;28;19925;-61
2024/04/06 02:35:07;;;;;;;;;;;24.30;40.90;;;;;;5053430;28;19925;-61
2024/04/06 02:37:33;;;;;;;;;;;24.30;40.90;;;;;;5052719;28;20365;-61
2024/04/06 02:39:59;;;;;;;;;;;24.30;40.90;;;;;;5036201;28;19931;-61
2024/04/06 02:42:25;;;;;;;;;;;24.20;40.90;;;;;;5052991;28;19925;-61
2024/04/06 02:44:51;;;;;;;;;;;24.20;40.90;;;;;;5052805;28;20353;-63
2024/04/06 02:47:16;;;;;;;;;;;24.20;41.50;;;;;;5052911;28;19980;-61
2024/04/06 02:49:42;;;;;;;;;;;24.30;41.00;;;;;;5052868;28;19952;-61
2024/04/06 02:52:08;;;;;;;;;;;24.20;41.00;;;;;;5052434;28;19983;-61
2024/04/06 02:54:34;;;;;;;;;;;24.20;41.00;;;;;;5052634;28;19925;-61
2024/04/06 02:57:00;;;;;;;;;;;24.20;40.90;;;;;;5052303;28;19935;-62
2024/04/06 02:59:26;;;;;;;;;;;24.20;40.90;;;;;;5052424;28;19929;-61
2024/04/06 03:01:52;;;;;;;;;;;24.20;41.00;;;;;;5052223;28;19957;-61
2024/04/06 03:04:18;;;;;;;;;;;24.20;40.90;;;;;;5052498;28;20019;-61
2024/04/06 03:06:44;;;;;;;;;;;24.30;41.00;;;;;;5052252;28;20333;-61
2024/04/06 03:09:10;;;;;;;;;;;24.20;40.90;;;;;;5052224;28;19928;-61
2024/04/06 03:11:36;;;;;;;;;;;24.20;40.90;;;;;;5052248;28;19929;-61
2024/04/06 03:14:02;;;;;;;;;;;24.20;40.90;;;;;;5051573;28;19926;-62
2024/04/06 03:16:28;;;;;;;;;;;24.20;41.50;;;;;;5052645;28;20019;-62
2024/04/06 03:18:54;;;;;;;;;;;24.20;40.90;;;;;;5052362;28;19971;-61
2024/04/06 03:21:21;;;;;;;;;;;24.20;40.90;;;;;;5052457;28;20293;-62
2024/04/06 03:23:47;;;;;;;;;;;24.20;40.90;;;;;;5052309;28;19925;-61
2024/04/06 03:26:12;;;;;;;;;;;24.20;40.90;;;;;;5051849;28;20499;-62
2024/04/06 03:28:38;;;;;;;;;;;24.20;40.90;;;;;;5052176;28;19931;-62
2024/04/06 03:31:04;;;;;;;;;;;24.20;40.90;;;;;;5052232;28;20023;-62
2024/04/06 03:33:30;;;;;;;;;;;24.20;40.90;;;;;;5052167;28;19929;-61
2024/04/06 03:35:56;;;;;;;;;;;24.20;40.90;;;;;;5051897;28;20410;-61
2024/04/06 03:38:21;;;;;;;;;;;24.30;40.90;;;;;;5051958;28;19931;-62
2024/04/06 03:40:47;;;;;;;;;;;24.30;41.00;;;;;;5052096;28;19925;-62
2024/04/06 03:43:13;;;;;;;;;;;24.20;41.00;;;;;;5052344;28;20259;-62
2024/04/06 03:45:39;;;;;;;;;;;24.20;41.00;;;;;;5052008;28;19932;-62
2024/04/06 03:48:05;;;;;;;;;;;24.20;41.00;;;;;;5035217;28;19992;-62
2024/04/06 03:50:31;;;;;;;;;;;24.20;41.00;;;;;;5052346;28;20389;-61
2024/04/06 03:53:00;;;;;;;;;;;24.20;41.00;;;;;;5052115;28;19925;-61
2024/04/06 03:55:26;;;;;;;;;;;24.20;41.10;;;;;;5051941;28;19928;-62
2024/04/06 03:57:53;;;;;;;;;;;24.20;41.10;;;;;;5051681;28;20431;-61
2024/04/06 04:00:20;;;;;;;;;;;24.20;41.10;;;;;;5051973;28;19948;-61
2024/04/06 04:02:46;;;;;;;;;;;24.20;41.10;;;;;;5051849;28;19929;-61
2024/04/06 04:05:12;;;;;;;;;;;24.20;41.10;;;;;;5052071;28;19925;-62
2024/04/06 04:07:37;;;;;;;;;;;24.20;41.10;;;;;;5051936;28;19925;-61
2024/04/06 04:10:05;;;;;;;;;;;24.20;41.10;;;;;;5051584;28;20396;-61
2024/04/06 04:12:33;;;;;;;;;;;24.10;41.00;;;;;;5051894;28;19925;-61
2024/04/06 04:14:59;;;;;;;;;;;24.20;41.10;;;;;;5051657;28;19925;-61
2024/04/06 04:17:25;;;;;;;;;;;24.20;41.00;;;;;;5034864;28;20370;-62
2024/04/06 04:19:51;;;;;;;;;;;24.20;41.00;;;;;;5051516;28;19974;-61
2024/04/06 04:22:17;;;;;;;;;;;24.20;41.00;;;;;;5051279;28;19931;-62
2024/04/06 04:24:43;;;;;;;;;;;24.20;41.00;;;;;;5052276;28;20019;-62
2024/04/06 04:27:09;;;;;;;;;;;24.20;41.00;;;;;;5055383;28;19994;-63
2024/04/06 04:29:35;;;;;;;;;;;24.20;41.00;;;;;;5055621;28;19925;-61
2024/04/06 04:32:03;;;;;;;;;;;24.20;41.00;;;;;;5055019;28;20309;-61
2024/04/06 04:34:29;;;;;;;;;;;24.20;41.00;;;;;;5055233;28;19925;-62
2024/04/06 04:36:55;;;;;;;;;;;24.20;41.00;;;;;;5055072;28;20435;-62
2024/04/06 04:39:21;;;;;;;;;;;24.20;40.90;;;;;;5055153;28;19929;-62
2024/04/06 04:41:47;;;;;;;;;;;24.20;40.80;;;;;;5054877;28;19925;-62
2024/04/06 04:44:13;;;;;;;;;;;24.30;40.70;;;;;;5054931;28;19932;-62
2024/04/06 04:46:39;;;;;;;;;;;24.30;40.50;;;;;;5052206;28;19931;-62
2024/04/06 04:49:05;;;;;;;;;;;24.30;40.40;;;;;;5054239;28;20316;-62
2024/04/06 04:51:31;;;;;;;;;;;24.30;40.30;;;;;;5053375;28;19925;-62
2024/04/06 04:53:56;;;;;;;;;;;24.30;40.20;;;;;;5054815;28;20392;-61
2024/04/06 04:56:22;;;;;;;;;;;24.30;40.10;;;;;;5054811;28;19925;-62
2024/04/06 04:58:49;;;;;;;;;;;24.30;40.00;;;;;;5054954;28;19929;-62
2024/04/06 05:01:18;;;;;;;;;;;24.40;40.10;;;;;;5054414;28;19932;-62
2024/04/06 05:03:44;;;;;;;;;;;24.40;40.10;;;;;;5054672;28;19932;-61
2024/04/06 05:06:10;;;;;;;;;;;24.40;40.60;;;;;;5054315;28;19933;-61
2024/04/06 05:08:36;;;;;;;;;;;24.40;40.00;;;;;;5054988;28;19924;-61
2024/04/06 05:11:02;;;;;;;;;;;24.40;40.00;;;;;;5054880;28;19931;-61
2024/04/06 05:13:28;;;;;;;;;;;24.40;39.90;;;;;;5054405;28;19925;-62
2024/04/06 05:15:54;;;;;;;;;;;24.40;39.90;;;;;;5054811;28;19972;-62
2024/04/06 05:18:21;;;;;;;;;;;24.50;39.90;;;;;;5054373;28;19928;-62
2024/04/06 05:20:50;;;;;;;;;;;24.50;39.90;;;;;;5054373;28;19932;-62
2024/04/06 05:23:16;;;;;;;;;;;24.50;39.90;;;;;;5053903;28;19928;-63
2024/04/06 05:25:43;;;;;;;;;;;24.50;39.80;;;;;;5054637;28;19924;-62
2024/04/06 05:28:09;;;;;;;;;;;24.50;39.80;;;;;;5053819;28;19975;-62
2024/04/06 05:30:35;;;;;;;;;;;24.50;39.80;;;;;;5054438;28;20267;-62
2024/04/06 05:33:01;;;;;;;;;;;24.60;39.80;;;;;;5054272;28;19932;-61
2024/04/06 05:35:27;;;;;;;;;;;24.60;39.80;;;;;;5054458;28;20337;-62
2024/04/06 05:37:53;;;;;;;;;;;24.60;39.70;;;;;;5053573;28;19983;-62
2024/04/06 05:40:19;;;;;;;;;;;24.60;39.70;;;;;;5054289;28;19948;-62
2024/04/06 05:42:45;;;;;;;;;;;24.60;39.70;;;;;;5053878;28;20020;-61
2024/04/06 05:45:11;;;;;;;;;;;24.60;39.70;;;;;;5054248;28;20657;-61
2024/04/06 05:47:37;;;;;;;;;;;24.70;39.70;;;;;;5052364;28;19931;-62
2024/04/06 05:50:04;;;;;;;;;;;24.70;39.60;;;;;;5035846;28;19925;-61
2024/04/06 05:52:30;;;;;;;;;;;24.70;39.50;;;;;;5053947;28;19935;-62
2024/04/06 05:54:57;;;;;;;;;;;24.70;39.50;;;;;;5055334;28;19924;-61
2024/04/06 05:57:23;;;;;;;;;;;24.70;39.40;;;;;;5058004;28;19929;-62
2024/04/06 05:59:49;;;;;;;;;;;24.80;39.40;;;;;;5053182;28;19924;-61
2024/04/06 06:02:15;;;;;;;;;;;24.80;39.40;;;;;;5053107;28;19931;-61
2024/04/06 06:04:42;;;;;;;;;;;24.80;39.40;;;;;;5036665;28;19983;-62
2024/04/06 06:07:08;;;;;;;;;;;24.90;39.30;;;;;;5053199;28;19978;-61
2024/04/06 06:09:33;;;;;;;;;;;24.90;39.30;;;;;;5053236;28;19925;-62
2024/04/06 06:11:59;;;;;;;;;;;24.90;39.20;;;;;;5052561;28;19979;-61
2024/04/06 06:14:27;;;;;;;;;;;24.90;39.10;;;;;;5053450;28;19925;-62
2024/04/06 06:16:53;;;;;;;;;;;25.00;39.10;;;;;;5052842;28;19975;-62
2024/04/06 06:19:18;;;;;;;;;;;25.10;39.10;;;;;;5053393;28;20024;-61
2024/04/06 06:21:44;;;;;;;;;;;25.10;39.60;;;;;;5052815;28;19925;-61
2024/04/06 06:24:10;;;;;;;;;;;25.10;38.90;;;;;;5052935;28;19933;-62
2024/04/06 06:26:36;;;;;;;;;;;25.20;38.90;;;;;;5052890;28;19932;-61
2024/04/06 06:29:02;;;;;;;;;;;25.20;38.80;;;;;;5052861;28;19924;-62
2024/04/06 06:31:27;;;;;;;;;;;25.30;38.80;;;;;;5036226;28;19932;-62
2024/04/06 06:33:55;;;;;;;;;;;25.30;38.80;;;;;;5053040;28;19975;-62
2024/04/06 06:36:21;;;;;;;;;;;25.30;38.70;;;;;;5053068;28;19929;-61
2024/04/06 06:38:47;;;;;;;;;;;25.30;38.70;;;;;;5053099;28;20405;-61
2024/04/06 06:41:13;;;;;;;;;;;25.40;38.70;;;;;;5035947;28;19924;-62
2024/04/06 06:43:39;;;;;;;;;;;25.30;38.60;;;;;;5052778;28;19931;-62
2024/04/06 06:46:05;;;;;;;;;;;25.40;38.60;;;;;;5052672;28;19947;-61
2024/04/06 06:48:31;;;;;;;;;;;25.40;38.60;;;;;;5051866;28;19924;-62
2024/04/06 06:50:57;;;;;;;;;;;25.40;38.50;;;;;;5052605;28;20262;-61
2024/04/06 06:53:23;;;;;;;;;;;25.50;38.50;;;;;;5051930;28;20396;-61
2024/04/06 06:55:48;;;;;;;;;;;25.40;38.30;;;;;;5052481;28;19932;-62
2024/04/06 06:58:14;;;;;;;;;;;25.40;38.30;;;;;;5052671;28;19931;-61
2024/04/06 07:00:46;;;;;;;;;;;25.50;38.40;;;;;;5052307;28;20390;-62
2024/04/06 07:03:12;;;;;;;;;;;25.50;38.30;;;;;;5035658;28;19925;-61
2024/04/06 07:05:39;;;;;;;;;;;25.50;38.30;;;;;;5051851;28;19931;-61
2024/04/06 07:08:05;;;;;;;;;;;25.60;38.40;;;;;;5052395;28;19932;-61
2024/04/06 07:10:36;;;;;;;;;;;25.60;38.40;;;;;;5052322;28;19932;-61
2024/04/06 07:13:02;;;;;;;;;;;25.70;38.30;;;;;;5051845;28;19932;-61
2024/04/06 07:15:28;;;;;;;;;;;25.70;38.30;;;;;;5052509;28;20018;-61
2024/04/06 07:17:54;;;;;;;;;;;25.70;38.20;;;;;;5035319;28;19925;-62
2024/04/06 07:20:20;;;;;;;;;;;25.70;38.20;;;;;;5052167;28;19929;-61
2024/04/06 07:22:46;;;;;;;;;;;25.70;38.10;;;;;;5051971;28;20023;-61
2024/04/06 07:25:11;;;;;;;;;;;25.80;38.00;;;;;;5035394;28;20353;-61
2024/04/06 07:27:37;;;;;;;;;;;25.80;37.90;;;;;;5052261;28;20011;-62
2024/04/06 07:30:04;;;;;;;;;;;25.90;37.90;;;;;;5051897;28;20367;-61
2024/04/06 07:32:29;;;;;;;;;;;25.90;37.80;;;;;;5051800;28;19929;-61
2024/04/06 07:34:55;;;;;;;;;;;25.90;37.80;;;;;;5052009;28;19994;-61
2024/04/06 07:37:21;;;;;;;;;;;26.00;37.80;;;;;;5051996;28;20362;-61
2024/04/06 07:39:47;;;;;;;;;;;26.00;37.90;;;;;;5051704;28;20445;-62
2024/04/06 07:42:13;;;;;;;;;;;26.00;37.80;;;;;;5051893;28;20015;-61
2024/04/06 07:44:39;;;;;;;;;;;26.00;37.80;;;;;;5035301;28;20381;-62
2024/04/06 07:47:05;;;;;;;;;;;26.10;37.80;;;;;;5051759;28;20359;-61
2024/04/06 07:49:31;;;;;;;;;;;26.10;37.70;;;;;;5051858;28;19936;-61
2024/04/06 07:51:57;;;;;;;;;;;26.10;37.70;;;;;;5051926;28;19924;-61
2024/04/06 07:54:22;;;;;;;;;;;26.10;37.60;;;;;;5051676;28;19925;-61
2024/04/06 07:56:48;;;;;;;;;;;26.20;37.60;;;;;;5051888;28;20024;-61
2024/04/06 07:59:14;;;;;;;;;;;26.20;37.60;;;;;;5051437;28;19925;-61
2024/04/06 08:01:40;;;;;;;;;;;26.20;37.50;;;;;;5055292;28;20017;-61
2024/04/06 08:04:06;;;;;;;;;;;26.20;37.50;;;;;;5055199;28;19925;-61
2024/04/06 08:06:32;;;;;;;;;;;26.20;37.50;;;;;;5055916;28;20007;-61
2024/04/06 08:08:57;;;;;;;;;;;26.20;37.60;;;;;;5039355;28;19925;-61
2024/04/06 08:11:23;;;;;;;;;;;26.20;37.60;;;;;;5055284;28;20441;-61
2024/04/06 08:13:49;;;;;;;;;;;26.20;37.60;;;;;;5055408;28;19924;-61
2024/04/06 08:16:15;;;;;;;;;;;26.20;38.10;;;;;;5055065;28;19925;-61
2024/04/06 08:18:41;;;;;;;;;;;26.20;37.60;;;;;;5055317;28;20328;-61
2024/04/06 08:21:07;;;;;;;;;;;26.20;37.60;;;;;;5057032;28;19929;-61
2024/04/06 08:23:32;;;;;;;;;;;26.20;37.60;;;;;;5051965;28;19983;-61
2024/04/06 08:25:58;;;;;;;;;;;26.30;37.70;;;;;;5035180;28;19925;-61
2024/04/06 08:28:24;;;;;;;;;;;26.30;37.70;;;;;;5035268;28;19931;-61
2024/04/06 08:30:50;;;;;;;;;;;26.30;37.60;;;;;;5052134;28;20003;-62
2024/04/06 08:33:16;;;;;;;;;;;26.30;37.60;;;;;;5034902;28;20370;-61
2024/04/06 08:35:42;;;;;;;;;;;26.30;37.60;;;;;;5035432;28;19972;-61
2024/04/06 08:38:07;;;;;;;;;;;26.40;37.60;;;;;;5034892;28;19929;-61
2024/04/06 08:40:38;;;;;;;;;;;26.40;37.60;;;;;;5035237;28;19925;-61
2024/04/06 08:43:08;;;;;;;;;;;26.40;37.60;;;;;;5037025;28;19925;-61
2024/04/06 08:45:34;;;;;;;;;;;26.40;37.50;;;;;;5054758;28;20393;-61
2024/04/06 08:48:00;;;;;;;;;;;26.40;37.50;;;;;;5054634;28;19936;-62
2024/04/06 08:50:26;;;;;;;;;;;26.40;37.50;;;;;;5055185;28;19924;-61
2024/04/06 08:52:52;;;;;;;;;;;26.40;37.40;;;;;;5054544;28;20011;-61
2024/04/06 08:55:18;;;;;;;;;;;26.40;37.50;;;;;;5054512;28;19925;-61
2024/04/06 08:57:45;;;;;;;;;;;26.50;37.50;;;;;;5037535;28;20015;-61
2024/04/06 09:00:11;;;;;;;;;;;26.50;37.50;;;;;;5054416;28;19933;-61
2024/04/06 09:02:38;;;;;;;;;;;26.50;37.50;;;;;;5054737;28;19932;-61
2024/04/06 09:05:04;;;;;;;;;;;26.50;37.50;;;;;;5054314;28;20420;-61
2024/04/06 09:07:30;;;;;;;;;;;26.50;37.50;;;;;;5054389;28;19929;-61
2024/04/06 09:09:56;;;;;;;;;;;26.50;37.40;;;;;;5037790;28;20046;-62
2024/04/06 09:12:22;;;;;;;;;;;26.60;37.50;;;;;;5053792;28;19937;-61
2024/04/06 09:14:49;;;;;;;;;;;26.60;37.50;;;;;;5054306;28;19954;-61
2024/04/06 09:17:16;;;;;;;;;;;26.60;37.50;;;;;;5054570;28;19932;-61
2024/04/06 09:19:42;;;;;;;;;;;26.60;37.50;;;;;;5054410;28;19925;-61
2024/04/06 09:22:08;;;;;;;;;;;26.60;37.50;;;;;;5054009;28;20670;-61
2024/04/06 09:24:34;;;;;;;;;;;26.60;37.50;;;;;;5054215;28;19932;-61
2024/04/06 09:27:04;;;;;;;;;;;26.60;37.50;;;;;;5054023;28;19935;-61
2024/04/06 09:29:30;;;;;;;;;;;26.60;37.50;;;;;;5054024;28;19929;-61
2024/04/06 09:31:58;;;;;;;;;;;26.60;37.50;;;;;;5053852;28;19925;-61
2024/04/06 09:34:24;;;;;;;;;;;26.60;37.50;;;;;;5053882;28;19932;-61
2024/04/06 09:36:56;;;;;;;;;;;26.60;37.40;;;;;;5037244;28;19925;-61
2024/04/06 09:39:22;;;;;;;;;;;26.70;37.50;;;;;;5053970;28;19954;-61
2024/04/06 09:41:49;;;;;;;;;;;26.70;37.50;;;;;;5053908;28;19959;-61
2024/04/06 09:44:15;;;;;;;;;;;26.70;37.50;;;;;;5053651;28;19979;-61
2024/04/06 09:46:43;;;;;;;;;;;26.70;37.50;;;;;;5037045;28;19929;-61
2024/04/06 09:49:10;;;;;;;;;;;26.70;37.60;;;;;;5053632;28;19925;-61
2024/04/06 09:51:35;;;;;;;;;;;26.70;37.50;;;;;;5053416;28;19924;-61
2024/04/06 09:54:02;;;;;;;;;;;26.70;37.60;;;;;;5053425;28;19972;-62
2024/04/06 09:56:28;;;;;;;;;;;26.70;37.50;;;;;;5053677;28;19924;-61
2024/04/06 09:58:54;;;;;;;;;;;26.70;37.50;;;;;;5053470;28;19978;-61
2024/04/06 10:01:20;;;;;;;;;;;26.70;37.50;;;;;;5053331;28;19929;-61
2024/04/06 10:03:47;;;;;;;;;;;26.70;37.50;;;;;;5053345;28;19928;-61
2024/04/06 10:06:16;;;;;;;;;;;26.80;37.50;;;;;;5053255;28;19925;-61
2024/04/06 10:08:49;;;;;;;;;;;26.80;37.50;;;;;;5053107;28;19979;-61
2024/04/06 10:11:25;;;;;;;;;;;26.80;37.50;;;;;;5053552;28;19925;-61
2024/04/06 10:14:02;;;;;;;;;;;26.80;37.50;;;;;;5053043;28;19929;-61
2024/04/06 10:16:29;;;;;;;;;;;26.80;37.50;;;;;;5037096;28;19924;-61
2024/04/06 10:18:56;;;;;;;;;;;26.80;37.50;;;;;;5053176;28;19925;-61
2024/04/06 10:21:26;;;;;;;;;;;26.80;37.50;;;;;;5053218;28;19925;-61
2024/04/06 10:23:53;;;;;;;;;;;26.80;37.50;;;;;;5053112;28;20313;-61
2024/04/06 10:26:20;;;;;;;;;;;26.80;37.50;;;;;;5053381;28;19978;-61
2024/04/06 10:28:47;;;;;;;;;;;26.80;37.50;;;;;;5052768;28;19951;-61
2024/04/06 10:31:13;;;;;;;;;;;26.80;37.60;;;;;;5052751;28;20389;-61
2024/04/06 10:33:39;;;;;;;;;;;26.80;37.60;;;;;;5052712;28;19932;-61
2024/04/06 10:36:09;;;;;;;;;;;26.80;37.60;;;;;;5052613;28;19931;-61
2024/04/06 10:38:35;;;;;;;;;;;26.80;37.70;;;;;;5053202;28;19924;-61
2024/04/06 10:41:01;;;;;;;;;;;26.80;37.70;;;;;;5052802;28;19925;-61
2024/04/06 10:43:27;;;;;;;;;;;26.80;37.60;;;;;;5053002;28;19974;-61
2024/04/06 10:45:53;;;;;;;;;;;26.80;37.70;;;;;;5053045;28;20366;-61
2024/04/06 10:48:19;;;;;;;;;;;26.90;37.70;;;;;;5052512;28;20421;-61
2024/04/06 10:50:45;;;;;;;;;;;26.90;37.70;;;;;;5052561;28;19925;-61
2024/04/06 10:53:11;;;;;;;;;;;26.90;37.70;;;;;;5052767;28;19925;-62
2024/04/06 10:55:37;;;;;;;;;;;26.90;37.70;;;;;;5052592;28;19929;-61
2024/04/06 10:58:04;;;;;;;;;;;26.90;37.70;;;;;;5052861;28;19932;-61
2024/04/06 11:00:31;;;;;;;;;;;26.90;37.60;;;;;;5052771;28;20286;-61
2024/04/06 11:03:03;;;;;;;;;;;26.90;37.70;;;;;;5052290;28;19932;-61
2024/04/06 11:05:30;;;;;;;;;;;26.90;37.70;;;;;;5052490;28;19925;-61
2024/04/06 11:07:56;;;;;;;;;;;27.00;37.70;;;;;;5052271;28;19939;-61
2024/04/06 11:10:22;;;;;;;;;;;26.90;37.60;;;;;;5052268;28;19932;-61
2024/04/06 11:12:48;;;;;;;;;;;27.00;37.70;;;;;;5052329;28;20370;-61
2024/04/06 11:15:14;;;;;;;;;;;27.00;37.70;;;;;;5052321;28;19924;-61
2024/04/06 11:17:40;;;;;;;;;;;27.00;37.70;;;;;;5052095;28;19925;-61
2024/04/06 11:20:06;;;;;;;;;;;27.00;37.60;;;;;;5052391;28;20019;-61
2024/04/06 11:22:33;;;;;;;;;;;27.00;37.60;;;;;;5035835;28;20317;-61
2024/04/06 11:24:58;;;;;;;;;;;27.00;37.60;;;;;;5052277;28;19925;-61
2024/04/06 11:27:25;;;;;;;;;;;27.00;37.70;;;;;;5051995;28;20357;-61
2024/04/06 11:29:52;;;;;;;;;;;27.00;37.70;;;;;;5052418;28;19929;-61
2024/04/06 11:32:21;;;;;;;;;;;27.00;38.00;;;;;;5052216;28;19925;-62
2024/04/06 11:34:51;;;;;;;;;;;27.00;37.70;;;;;;5051684;28;20011;-62
2024/04/06 11:37:19;;;;;;;;;;;27.00;37.60;;;;;;5051926;28;19947;-62
2024/04/06 11:39:45;;;;;;;;;;;27.00;37.60;;;;;;5051889;28;19925;-61
2024/04/06 11:42:11;;;;;;;;;;;27.00;37.60;;;;;;5035161;28;20401;-62
2024/04/06 11:44:37;;;;;;;;;;;27.00;37.60;;;;;;5052085;28;19964;-62
2024/04/06 11:47:03;;;;;;;;;;;27.10;37.60;;;;;;5052063;28;20625;-61
2024/04/06 11:49:29;;;;;;;;;;;27.10;37.50;;;;;;5051982;28;19932;-62
2024/04/06 11:51:55;;;;;;;;;;;27.20;37.50;;;;;;5052193;28;20301;-64
2024/04/06 11:54:21;;;;;;;;;;;27.20;37.40;;;;;;5051758;28;20411;-62
2024/04/06 11:56:47;;;;;;;;;;;27.20;37.30;;;;;;5051870;28;19924;-62
2024/04/06 11:59:13;;;;;;;;;;;27.20;37.30;;;;;;5052058;28;19986;-61
2024/04/06 12:01:40;;;;;;;;;;;27.20;37.30;;;;;;5051948;28;19970;-61
2024/04/06 12:04:07;;;;;;;;;;;27.30;37.40;;;;;;5051775;28;19932;-61
2024/04/06 12:06:33;;;;;;;;;;;27.20;37.30;;;;;;5051723;28;19925;-61
2024/04/06 12:08:59;;;;;;;;;;;27.20;37.30;;;;;;5052063;28;19931;-61
2024/04/06 12:11:25;;;;;;;;;;;27.20;37.30;;;;;;5051803;28;20445;-62
2024/04/06 12:13:50;;;;;;;;;;;27.20;37.30;;;;;;5051523;28;19929;-61
2024/04/06 12:16:16;;;;;;;;;;;27.20;37.30;;;;;;5052086;28;19924;-61
2024/04/06 12:18:42;;;;;;;;;;;27.20;37.30;;;;;;5052030;28;20447;-61
2024/04/06 12:21:08;;;;;;;;;;;27.30;37.30;;;;;;5051767;28;19924;-61
2024/04/06 12:23:35;;;;;;;;;;;27.30;37.30;;;;;;5051277;28;20342;-61
2024/04/06 12:26:01;;;;;;;;;;;27.30;37.30;;;;;;5051510;28;19944;-61
2024/04/06 12:28:26;;;;;;;;;;;27.30;37.20;;;;;;5051390;28;19925;-62
2024/04/06 12:30:52;;;;;;;;;;;27.30;37.20;;;;;;5051655;28;20016;-62
2024/04/06 12:33:18;;;;;;;;;;;27.30;37.20;;;;;;5051192;28;20408;-61
2024/04/06 12:35:48;;;;;;;;;;;27.30;37.70;;;;;;5051698;28;20091;-62
2024/04/06 12:38:14;;;;;;;;;;;27.30;37.20;;;;;;5051461;28;19932;-61
2024/04/06 12:40:40;;;;;;;;;;;27.30;37.20;;;;;;5051444;28;19932;-62
2024/04/06 12:43:06;;;;;;;;;;;27.30;37.20;;;;;;5050995;28;19925;-61
2024/04/06 12:45:31;;;;;;;;;;;27.30;37.20;;;;;;5051857;28;20011;-62
2024/04/06 12:47:57;;;;;;;;;;;27.30;37.20;;;;;;5053594;28;20374;-61
2024/04/06 12:50:24;;;;;;;;;;;27.30;37.10;;;;;;5054920;28;19951;-61
2024/04/06 12:52:50;;;;;;;;;;;27.30;37.10;;;;;;5054738;28;19936;-61
2024/04/06 12:55:16;;;;;;;;;;;27.30;37.10;;;;;;5054798;28;20000;-61
2024/04/06 12:57:45;;;;;;;;;;;27.30;37.10;;;;;;5054953;28;20024;-61
2024/04/06 13:00:13;;;;;;;;;;;27.30;37.00;;;;;;5055037;28;19933;-61
2024/04/06 13:02:40;;;;;;;;;;;27.30;37.00;;;;;;5057667;28;19924;-61
2024/04/06 13:05:06;;;;;;;;;;;27.30;36.90;;;;;;5053415;28;19925;-61
2024/04/06 13:07:36;;;;;;;;;;;27.40;37.60;;;;;;5038334;28;19925;-62
2024/04/06 13:10:06;;;;;;;;;;;27.40;37.00;;;;;;5054649;28;20370;-62
2024/04/06 13:12:32;;;;;;;;;;;27.40;37.00;;;;;;5054729;28;19925;-63
2024/04/06 13:14:59;;;;;;;;;;;27.40;37.00;;;;;;5054524;28;20322;-62
2024/04/06 13:17:25;;;;;;;;;;;27.40;36.90;;;;;;5054620;28;19924;-61
2024/04/06 13:19:52;;;;;;;;;;;27.40;36.90;;;;;;5037765;28;19929;-61
2024/04/06 13:22:18;;;;;;;;;;;27.40;36.90;;;;;;5054344;28;19925;-61
2024/04/06 13:24:44;;;;;;;;;;;27.40;36.90;;;;;;5054423;28;19931;-62
2024/04/06 13:27:09;;;;;;;;;;;27.40;36.90;;;;;;5054191;28;19925;-62
2024/04/06 13:29:36;;;;;;;;;;;27.40;36.90;;;;;;5054516;28;19972;-62
2024/04/06 13:32:04;;;;;;;;;;;27.40;36.90;;;;;;5054017;28;19925;-62
2024/04/06 13:34:30;;;;;;;;;;;27.40;36.90;;;;;;5054280;28;19931;-61
2024/04/06 13:36:56;;;;;;;;;;;27.40;36.90;;;;;;5054214;28;20393;-61
2024/04/06 13:39:22;;;;;;;;;;;27.40;36.90;;;;;;5053967;28;19924;-61
2024/04/06 13:41:48;;;;;;;;;;;27.40;36.90;;;;;;5053981;28;19931;-62
2024/04/06 13:44:13;;;;;;;;;;;27.40;36.80;;;;;;5054233;28;19931;-62
2024/04/06 13:46:39;;;;;;;;;;;27.40;36.80;;;;;;5053871;28;19924;-62
2024/04/06 13:49:11;;;;;;;;;;;27.40;36.80;;;;;;5037140;28;19932;-61
2024/04/06 13:51:38;;;;;;;;;;;27.40;36.80;;;;;;5053944;28;19931;-61
2024/04/06 13:54:04;;;;;;;;;;;27.40;36.80;;;;;;5053812;28;19925;-61
2024/04/06 13:56:31;;;;;;;;;;;27.40;36.80;;;;;;5053293;28;19978;-62
2024/04/06 13:58:58;;;;;;;;;;;27.40;36.80;;;;;;5053462;28;19994;-61
2024/04/06 14:01:24;;;;;;;;;;;27.40;36.70;;;;;;5053793;28;20208;-61
2024/04/06 14:03:50;;;;;;;;;;;27.40;36.70;;;;;;5053728;28;19925;-62
2024/04/06 14:06:16;;;;;;;;;;;27.40;36.60;;;;;;5053851;28;19924;-61
2024/04/06 14:08:42;;;;;;;;;;;27.40;36.60;;;;;;5053413;28;19932;-62
2024/04/06 14:11:10;;;;;;;;;;;27.40;36.50;;;;;;5053747;28;19925;-61
2024/04/06 14:13:36;;;;;;;;;;;27.50;36.60;;;;;;5053575;28;20305;-61